createdAt,value
2022-07-27T00:01:31.345Z,99.90
2022-07-27T00:04:02.187Z,99.80
2022-07-27T00:06:30.105Z,99.90
2022-07-27T00:08:57.946Z,99.40
2022-07-27T00:11:25.648Z,99.50
2022-07-27T00:13:53.388Z,99.50
2022-07-27T00:16:22.114Z,99.60
2022-07-27T00:18:49.903Z,99.60
2022-07-27T00:21:17.875Z,99.50
2022-07-27T00:23:46.616Z,99.10
2022-07-27T00:26:14.428Z,99.20
2022-07-27T00:28:42.215Z,99.20
2022-07-27T00:31:11.650Z,99.10
2022-07-27T00:33:39.631Z,99.00
2022-07-27T00:36:07.466Z,98.90
2022-07-27T00:38:35.549Z,98.80
2022-07-27T00:41:06.295Z,98.60
2022-07-27T00:43:34.370Z,98.60
2022-07-27T00:46:05.271Z,98.40
2022-07-27T00:48:33.230Z,98.30
2022-07-27T00:51:03.227Z,98.30
2022-07-27T00:53:31.014Z,98.00
2022-07-27T00:55:59.774Z,97.90
2022-07-27T00:58:27.695Z,97.70
2022-07-27T01:00:56.425Z,97.60
2022-07-27T01:03:29.807Z,97.40
2022-07-27T01:06:01.083Z,97.30
2022-07-27T01:08:30.158Z,97.20
2022-07-27T01:10:58.539Z,97.10
2022-07-27T01:13:27.589Z,97.20
2022-07-27T01:15:55.884Z,97.00
2022-07-27T01:18:28.622Z,96.90
2022-07-27T01:20:57.762Z,96.90
2022-07-27T01:23:26.047Z,96.80
2022-07-27T01:25:54.596Z,96.70
2022-07-27T01:28:22.648Z,97.00
2022-07-27T01:30:51.217Z,96.60
2022-07-27T01:33:19.113Z,96.60
2022-07-27T01:35:47.804Z,96.10
2022-07-27T01:38:15.594Z,96.30
2022-07-27T01:40:44.047Z,96.00
2022-07-27T01:43:11.819Z,95.70
2022-07-27T01:45:40.411Z,95.70
2022-07-27T01:48:08.400Z,95.60
2022-07-27T01:50:36.225Z,95.60
2022-07-27T01:53:04.161Z,95.50
2022-07-27T01:55:38.386Z,95.40
2022-07-27T01:58:07.835Z,95.30
2022-07-27T02:00:37.189Z,95.10
2022-07-27T02:03:08.682Z,95.10
2022-07-27T02:05:38.243Z,95.00
2022-07-27T02:08:07.716Z,95.00
2022-07-27T02:10:36.754Z,94.80
2022-07-27T02:13:22.511Z,94.80
2022-07-27T02:15:54.588Z,95.00
2022-07-27T02:18:33.772Z,94.70
2022-07-27T02:21:07.259Z,94.70
2022-07-27T02:23:36.365Z,94.60
2022-07-27T02:26:06.558Z,94.50
2022-07-27T02:28:35.490Z,94.30
2022-07-27T02:31:03.681Z,94.30
2022-07-27T02:33:34.668Z,94.30
2022-07-27T02:36:06.733Z,94.30
2022-07-27T02:38:35.606Z,94.30
2022-07-27T02:41:03.462Z,94.10
2022-07-27T02:43:33.777Z,94.30
2022-07-27T02:46:03.451Z,94.20
2022-07-27T02:48:32.476Z,93.90
2022-07-27T02:51:01.654Z,94.10
2022-07-27T02:53:30.436Z,94.10
2022-07-27T02:55:59.306Z,94.00
2022-07-27T02:58:30.330Z,93.80
2022-07-27T03:00:58.737Z,93.70
2022-07-27T03:03:33.775Z,93.70
2022-07-27T03:06:07.360Z,93.50
2022-07-27T03:08:39.601Z,93.30
2022-07-27T03:11:09.179Z,93.60
2022-07-27T03:13:36.950Z,93.20
2022-07-27T03:16:04.710Z,93.30
2022-07-27T03:18:35.448Z,92.50
2022-07-27T03:21:03.299Z,92.10
2022-07-27T03:23:32.207Z,92.50
2022-07-27T03:26:00.360Z,92.50
2022-07-27T03:28:29.513Z,92.60
2022-07-27T03:30:57.385Z,92.60
2022-07-27T03:33:25.213Z,92.20
2022-07-27T03:35:53.001Z,92.60
2022-07-27T03:38:21.115Z,92.40
2022-07-27T03:40:50.940Z,92.00
2022-07-27T03:43:19.073Z,92.60
2022-07-27T03:45:47.064Z,92.00
2022-07-27T03:48:18.144Z,92.30
2022-07-27T03:50:45.890Z,91.90
2022-07-27T03:53:13.735Z,92.20
2022-07-27T03:55:41.753Z,92.10
2022-07-27T03:58:10.501Z,91.30
2022-07-27T04:00:41.681Z,91.80
2022-07-27T04:03:10.593Z,91.40
2022-07-27T04:05:44.642Z,91.40
2022-07-27T04:08:13.820Z,91.10
2022-07-27T04:10:44.892Z,91.40
2022-07-27T04:13:14.507Z,91.10
2022-07-27T04:15:43.760Z,91.30
2022-07-27T04:18:11.728Z,91.00
2022-07-27T04:20:41.715Z,91.30
2022-07-27T04:23:09.781Z,90.60
2022-07-27T04:25:37.847Z,90.90
2022-07-27T04:28:06.098Z,88.40
2022-07-27T04:30:34.329Z,90.60
2022-07-27T04:33:02.233Z,90.60
2022-07-27T04:38:14.975Z,90.30
2022-07-27T04:40:42.882Z,90.30
2022-07-27T04:43:11.175Z,89.20
2022-07-27T04:45:41.163Z,89.40
2022-07-27T04:48:11.883Z,89.70
2022-07-27T04:50:44.915Z,90.10
2022-07-27T04:53:13.331Z,90.60
2022-07-27T04:55:47.239Z,90.70
2022-07-27T04:58:16.066Z,90.10
2022-07-27T05:00:44.201Z,88.90
2022-07-27T05:03:12.299Z,88.90
2022-07-27T05:05:50.122Z,89.20
2022-07-27T05:08:18.911Z,86.30
2022-07-27T05:10:47.713Z,88.50
2022-07-27T05:13:16.627Z,88.70
2022-07-27T05:15:55.426Z,87.90
2022-07-27T05:18:29.845Z,87.20
2022-07-27T05:20:58.889Z,87.60
2022-07-27T05:23:26.901Z,88.20
2022-07-27T05:25:54.861Z,88.90
2022-07-27T05:28:23.070Z,90.00
2022-07-27T05:30:51.998Z,88.70
2022-07-27T05:33:20.214Z,87.10
2022-07-27T05:35:48.023Z,85.90
2022-07-27T05:38:17.424Z,87.80
2022-07-27T05:40:51.292Z,87.00
2022-07-27T05:43:20.682Z,85.70
2022-07-27T05:45:49.357Z,86.90
2022-07-27T05:48:17.278Z,86.50
2022-07-27T05:50:44.986Z,85.90
2022-07-27T05:53:14.941Z,86.40
2022-07-27T05:55:58.181Z,87.00
2022-07-27T05:58:29.566Z,86.50
2022-07-27T06:00:58.045Z,87.60
2022-07-27T06:03:30.035Z,84.40
2022-07-27T06:06:17.887Z,84.50
2022-07-27T06:08:49.066Z,85.10
2022-07-27T06:11:17.934Z,85.40
2022-07-27T06:13:48.315Z,85.50
2022-07-27T06:16:16.147Z,85.60
2022-07-27T06:18:47.155Z,86.10
2022-07-27T06:21:14.930Z,84.80
2022-07-27T06:23:42.774Z,84.40
2022-07-27T06:26:19.869Z,85.70
2022-07-27T06:28:50.947Z,85.90
2022-07-27T06:31:19.388Z,86.00
2022-07-27T06:33:48.287Z,85.80
2022-07-27T06:36:20.233Z,83.30
2022-07-27T06:38:48.581Z,83.80
2022-07-27T06:41:16.693Z,85.00
2022-07-27T06:43:45.584Z,84.70
2022-07-27T06:46:14.036Z,84.30
2022-07-27T06:48:42.440Z,84.30
2022-07-27T06:51:10.403Z,84.80
2022-07-27T06:53:38.532Z,84.80
2022-07-27T06:56:09.720Z,85.00
2022-07-27T06:58:39.182Z,84.50
2022-07-27T07:01:09.953Z,83.00
2022-07-27T07:03:37.861Z,83.70
2022-07-27T07:06:07.350Z,83.90
2022-07-27T07:08:39.161Z,84.70
2022-07-27T07:11:07.036Z,84.50
2022-07-27T07:13:38.512Z,84.20
2022-07-27T07:16:10.274Z,84.80
2022-07-27T07:18:38.087Z,84.70
2022-07-27T07:21:06.336Z,84.60
2022-07-27T07:23:34.157Z,83.30
2022-07-27T07:26:01.922Z,82.50
2022-07-27T07:28:29.681Z,83.30
2022-07-27T07:30:57.638Z,84.20
2022-07-27T07:33:25.613Z,84.10
2022-07-27T07:36:13.287Z,83.80
2022-07-27T07:38:41.333Z,83.80
2022-07-27T07:41:12.527Z,83.80
2022-07-27T07:43:42.591Z,84.50
2022-07-27T07:46:11.040Z,84.30
2022-07-27T07:48:39.940Z,83.50
2022-07-27T07:51:10.808Z,83.20
2022-07-27T07:53:41.682Z,81.70
2022-07-27T07:56:22.812Z,82.60
2022-07-27T07:58:51.528Z,83.20
2022-07-27T08:01:19.420Z,81.40
2022-07-27T08:03:56.500Z,81.70
2022-07-27T08:06:28.368Z,81.10
2022-07-27T08:08:56.132Z,82.30
2022-07-27T08:11:24.895Z,83.20
2022-07-27T08:13:52.973Z,81.00
2022-07-27T08:16:23.737Z,80.10
2022-07-27T08:18:54.147Z,78.80
2022-07-27T08:21:21.924Z,79.00
2022-07-27T08:23:49.799Z,80.50
2022-07-27T08:26:18.667Z,81.80
2022-07-27T08:28:47.916Z,82.00
2022-07-27T08:31:24.542Z,79.50
2022-07-27T08:34:04.105Z,80.80
2022-07-27T08:36:31.904Z,81.20
2022-07-27T08:39:02.615Z,81.80
2022-07-27T08:41:32.239Z,80.10
2022-07-27T08:44:04.919Z,78.40
2022-07-27T08:46:33.607Z,79.70
2022-07-27T08:49:02.678Z,79.60
2022-07-27T08:51:32.136Z,78.30
2022-07-27T08:54:04.546Z,78.90
2022-07-27T08:56:33.136Z,77.70
2022-07-27T08:59:04.699Z,81.30
2022-07-27T09:01:33.700Z,78.40
2022-07-27T09:04:01.697Z,79.30
2022-07-27T09:06:53.188Z,78.80
2022-07-27T09:09:22.963Z,80.10
2022-07-27T09:12:04.968Z,79.20
2022-07-27T09:14:57.123Z,80.80
2022-07-27T09:17:48.033Z,81.30
2022-07-27T09:20:18.814Z,80.90
2022-07-27T09:23:05.914Z,82.00
2022-07-27T09:26:02.279Z,80.30
2022-07-27T09:28:31.796Z,78.50
2022-07-27T09:31:06.225Z,76.70
2022-07-27T09:33:42.768Z,76.60
2022-07-27T09:36:10.669Z,77.90
2022-07-27T09:38:55.169Z,77.00
2022-07-27T09:41:28.885Z,77.70
2022-07-27T09:46:47.139Z,76.30
2022-07-27T09:49:33.176Z,76.40
2022-07-27T09:52:02.800Z,77.50
2022-07-27T09:54:50.234Z,75.20
2022-07-27T09:57:19.238Z,76.40
2022-07-27T09:59:47.452Z,76.10
2022-07-27T10:02:15.466Z,76.60
2022-07-27T10:04:45.569Z,77.00
2022-07-27T10:07:17.098Z,77.50
2022-07-27T10:09:47.314Z,79.80
2022-07-27T10:12:15.152Z,79.90
2022-07-27T10:14:43.591Z,80.30
2022-07-27T10:17:13.095Z,79.80
2022-07-27T10:19:48.420Z,78.20
2022-07-27T10:22:17.711Z,80.10
2022-07-27T10:24:48.731Z,80.00
2022-07-27T10:27:32.775Z,79.40
2022-07-27T10:30:00.660Z,79.50
2022-07-27T10:32:31.564Z,82.70
2022-07-27T10:35:00.137Z,83.50
2022-07-27T10:37:29.491Z,82.60
2022-07-27T10:40:11.725Z,82.70
2022-07-27T10:42:40.386Z,83.60
2022-07-27T10:45:15.363Z,83.40
2022-07-27T10:47:47.492Z,83.30
2022-07-27T10:50:23.345Z,81.90
2022-07-27T10:52:53.816Z,82.30
2022-07-27T10:55:43.956Z,81.70
2022-07-27T10:58:31.543Z,82.10
2022-07-27T11:01:00.539Z,81.90
2022-07-27T11:03:42.552Z,82.10
2022-07-27T11:06:32.623Z,82.80
2022-07-27T11:11:51.500Z,83.40
2022-07-27T11:14:30.311Z,83.70
2022-07-27T11:19:56.307Z,84.30
2022-07-27T11:25:24.621Z,83.30
2022-07-27T11:27:52.917Z,83.60
2022-07-27T11:30:24.708Z,83.60
2022-07-27T11:32:52.594Z,84.10
2022-07-27T11:35:20.610Z,84.30
2022-07-27T11:38:04.480Z,83.90
2022-07-27T11:43:34.463Z,84.40
2022-07-27T11:46:17.050Z,84.40
2022-07-27T11:49:08.046Z,84.40
2022-07-27T11:51:37.880Z,84.70
2022-07-27T11:54:07.337Z,84.90
2022-07-27T11:56:36.678Z,84.90
2022-07-27T11:59:16.381Z,85.00
2022-07-27T12:01:46.003Z,85.00
2022-07-27T12:04:16.620Z,85.20
2022-07-27T12:06:45.467Z,85.60
2022-07-27T12:09:15.980Z,85.70
2022-07-27T12:11:50.561Z,85.90
2022-07-27T12:14:19.709Z,85.90
2022-07-27T12:16:47.506Z,86.00
2022-07-27T12:19:26.575Z,86.00
2022-07-27T12:21:55.666Z,86.30
2022-07-27T12:24:32.862Z,86.40
2022-07-27T12:27:15.382Z,86.50
2022-07-27T12:29:55.350Z,86.70
2022-07-27T12:32:23.180Z,86.80
2022-07-27T12:34:50.928Z,86.90
2022-07-27T12:37:18.789Z,87.00
2022-07-27T12:39:47.163Z,87.10
2022-07-27T12:42:15.466Z,87.20
2022-07-27T12:44:45.564Z,87.40
2022-07-27T12:47:27.698Z,87.50
2022-07-27T12:50:09.366Z,87.50
2022-07-27T12:52:38.568Z,87.70
2022-07-27T12:55:07.193Z,87.80
2022-07-27T12:57:54.571Z,87.90
2022-07-27T13:00:29.205Z,87.90
2022-07-27T13:03:01.539Z,88.10
2022-07-27T13:05:29.690Z,88.10
2022-07-27T13:07:57.685Z,88.20
2022-07-27T13:10:25.608Z,88.30
2022-07-27T13:12:53.361Z,88.40
2022-07-27T13:15:21.128Z,88.40
2022-07-27T13:17:50.136Z,88.50
2022-07-27T13:20:23.819Z,88.60
2022-07-27T13:22:53.394Z,88.70
2022-07-27T13:25:21.765Z,88.80
2022-07-27T13:27:49.900Z,88.80
2022-07-27T13:30:18.379Z,88.90
2022-07-27T13:32:49.964Z,89.20
2022-07-27T13:35:21.073Z,89.10
2022-07-27T13:37:48.846Z,89.30
2022-07-27T13:40:16.685Z,89.40
2022-07-27T13:42:44.567Z,89.60
2022-07-27T13:45:12.721Z,89.80
2022-07-27T13:47:41.037Z,89.70
2022-07-27T13:50:13.666Z,90.00
2022-07-27T13:52:46.035Z,90.00
2022-07-27T13:55:15.768Z,90.00
2022-07-27T13:57:43.573Z,90.20
2022-07-27T14:00:12.510Z,90.30
2022-07-27T14:02:41.874Z,90.30
2022-07-27T14:05:13.051Z,90.40
2022-07-27T14:07:42.292Z,90.40
2022-07-27T14:10:22.349Z,90.40
2022-07-27T14:12:53.188Z,90.30
2022-07-27T14:15:25.772Z,90.30
2022-07-27T14:17:53.751Z,90.40
2022-07-27T14:20:21.550Z,90.60
2022-07-27T14:22:49.313Z,90.70
2022-07-27T14:25:17.323Z,90.60
2022-07-27T14:27:46.229Z,90.50
2022-07-27T14:30:18.716Z,90.50
2022-07-27T14:32:48.966Z,90.80
2022-07-27T14:35:18.432Z,91.00
2022-07-27T14:37:46.255Z,91.00
2022-07-27T14:40:14.759Z,90.90
2022-07-27T14:42:43.000Z,91.20
2022-07-27T14:45:10.960Z,91.00
2022-07-27T14:47:38.923Z,90.90
2022-07-27T14:50:08.440Z,91.10
2022-07-27T14:52:37.442Z,91.20
2022-07-27T14:55:05.937Z,91.30
2022-07-27T14:57:33.971Z,91.30
2022-07-27T15:00:01.869Z,91.30
2022-07-27T15:02:29.681Z,91.60
2022-07-27T15:04:57.912Z,91.60
2022-07-27T15:07:25.624Z,91.50
2022-07-27T15:09:53.594Z,91.40
2022-07-27T15:12:21.687Z,91.50
2022-07-27T15:14:50.241Z,91.60
2022-07-27T15:17:17.985Z,91.60
2022-07-27T15:19:46.812Z,91.60
2022-07-27T15:22:15.414Z,91.70
2022-07-27T15:24:46.807Z,91.70
2022-07-27T15:27:14.528Z,91.80
2022-07-27T15:29:43.123Z,91.90
2022-07-27T15:32:11.035Z,91.90
2022-07-27T15:34:39.093Z,91.90
2022-07-27T15:37:07.915Z,92.00
2022-07-27T15:39:39.849Z,91.90
2022-07-27T15:42:08.749Z,92.00
2022-07-27T15:44:36.797Z,91.90
2022-07-27T15:47:04.767Z,91.90
2022-07-27T15:49:32.744Z,91.90
2022-07-27T15:52:01.673Z,91.90
2022-07-27T15:54:33.405Z,91.90
2022-07-27T15:57:03.107Z,91.90
2022-07-27T15:59:31.393Z,92.00
2022-07-27T16:01:59.148Z,92.40
2022-07-27T16:04:28.437Z,92.10
2022-07-27T16:06:56.189Z,92.20
2022-07-27T16:09:23.916Z,92.30
2022-07-27T16:11:51.634Z,92.40
2022-07-27T16:14:19.342Z,92.70
2022-07-27T16:16:47.412Z,92.30
2022-07-27T16:19:16.217Z,92.80
2022-07-27T16:21:55.005Z,92.70
2022-07-27T16:24:24.895Z,92.70
2022-07-27T16:26:52.826Z,92.40
2022-07-27T16:29:20.589Z,92.60
2022-07-27T16:31:49.381Z,92.80
2022-07-27T16:34:18.654Z,92.60
2022-07-27T16:36:47.489Z,92.30
2022-07-27T16:39:16.508Z,92.60
2022-07-27T16:41:44.572Z,93.00
2022-07-27T16:44:12.291Z,93.00
2022-07-27T16:46:40.648Z,93.00
2022-07-27T16:49:09.763Z,92.70
2022-07-27T16:51:37.677Z,92.80
2022-07-27T16:54:05.902Z,93.40
2022-07-27T16:56:34.495Z,93.20
2022-07-27T16:59:02.275Z,93.30
2022-07-27T17:01:30.688Z,93.20
2022-07-27T17:03:59.060Z,93.40
2022-07-27T17:06:27.492Z,93.30
2022-07-27T17:08:55.647Z,93.90
2022-07-27T17:11:23.759Z,93.60
2022-07-27T17:13:59.418Z,93.50
2022-07-27T17:16:28.063Z,93.60
2022-07-27T17:18:56.008Z,93.70
2022-07-27T17:21:23.839Z,93.20
2022-07-27T17:23:51.536Z,93.40
2022-07-27T17:26:20.079Z,93.60
2022-07-27T17:28:51.423Z,94.00
2022-07-27T17:31:22.391Z,94.30
2022-07-27T17:33:50.322Z,94.50
2022-07-27T17:36:19.007Z,95.00
2022-07-27T17:38:47.531Z,94.10
2022-07-27T17:41:21.704Z,94.30
2022-07-27T17:43:53.401Z,94.30
2022-07-27T17:46:22.275Z,94.20
2022-07-27T17:48:50.171Z,94.10
2022-07-27T17:51:19.161Z,94.50
2022-07-27T17:53:47.256Z,94.50
2022-07-27T17:56:17.018Z,94.30
2022-07-27T17:58:46.942Z,94.40
2022-07-27T18:01:15.056Z,94.90
2022-07-27T18:03:43.397Z,94.10
2022-07-27T18:06:12.284Z,94.50
2022-07-27T18:08:40.008Z,94.70
2022-07-27T18:11:08.581Z,94.60
2022-07-27T18:13:37.779Z,94.70
2022-07-27T18:16:09.458Z,94.90
2022-07-27T18:18:37.610Z,95.00
2022-07-27T18:21:05.583Z,94.90
2022-07-27T18:23:33.353Z,95.20
2022-07-27T18:26:01.489Z,95.30
2022-07-27T18:28:29.620Z,95.40
2022-07-27T18:30:57.645Z,95.40
2022-07-27T18:33:36.444Z,95.60
2022-07-27T18:36:05.715Z,95.80
2022-07-27T18:38:33.722Z,96.00
2022-07-27T18:41:01.437Z,96.00
2022-07-27T18:43:29.208Z,95.90
2022-07-27T18:45:58.076Z,95.80
2022-07-27T18:48:26.586Z,95.90
2022-07-27T18:50:55.396Z,95.80
2022-07-27T18:53:23.227Z,96.10
2022-07-27T18:55:56.033Z,96.10
2022-07-27T18:58:24.476Z,96.20
2022-07-27T19:00:54.794Z,96.20
2022-07-27T19:03:22.765Z,96.20
2022-07-27T19:05:52.902Z,96.20
2022-07-27T19:08:21.183Z,96.20
2022-07-27T19:10:48.921Z,96.40
2022-07-27T19:13:16.633Z,96.40
2022-07-27T19:15:45.274Z,96.60
2022-07-27T19:18:13.446Z,96.50
2022-07-27T19:20:42.211Z,96.80
2022-07-27T19:23:10.205Z,96.80
2022-07-27T19:25:37.914Z,96.90
2022-07-27T19:28:06.070Z,96.60
2022-07-27T19:30:33.952Z,96.70
2022-07-27T19:33:01.766Z,96.90
2022-07-27T19:35:30.287Z,97.10
2022-07-27T19:37:58.903Z,97.10
2022-07-27T19:40:43.964Z,97.40
2022-07-27T19:43:12.774Z,97.50
2022-07-27T19:45:41.675Z,97.50
2022-07-27T19:48:09.582Z,97.50
2022-07-27T19:50:37.444Z,97.60
2022-07-27T19:53:05.483Z,97.60
2022-07-27T19:55:34.440Z,97.40
2022-07-27T19:58:03.058Z,97.60
2022-07-27T20:00:31.602Z,97.70
2022-07-27T20:02:59.467Z,97.90
2022-07-27T20:05:27.284Z,97.70
2022-07-27T20:07:55.031Z,98.00
2022-07-27T20:10:22.860Z,98.00
2022-07-27T20:12:53.117Z,97.90
2022-07-27T20:15:22.356Z,98.30
2022-07-27T20:17:51.559Z,98.40
2022-07-27T20:20:20.185Z,98.30
2022-07-27T20:22:49.427Z,98.40
2022-07-27T20:25:18.865Z,98.30
2022-07-27T20:27:47.178Z,98.50
2022-07-27T20:30:17.411Z,98.70
2022-07-27T20:32:46.630Z,98.70
2022-07-27T20:35:14.465Z,98.70
2022-07-27T20:37:42.682Z,98.70
2022-07-27T20:40:12.073Z,98.70
2022-07-27T20:42:41.029Z,98.80
2022-07-27T20:45:11.555Z,98.70
2022-07-27T20:47:40.320Z,98.70
2022-07-27T20:50:09.348Z,98.90
2022-07-27T20:52:37.751Z,98.90
2022-07-27T20:55:09.227Z,98.90
2022-07-27T20:57:37.798Z,98.90
2022-07-27T21:00:07.006Z,99.10
2022-07-27T21:02:34.825Z,99.10
2022-07-27T21:05:03.177Z,99.40
2022-07-27T21:07:31.293Z,99.40
2022-07-27T21:09:59.067Z,99.60
2022-07-27T21:12:26.837Z,99.90
2022-07-27T21:14:54.744Z,99.90
2022-07-27T21:17:24.527Z,99.90
2022-07-27T21:19:53.699Z,99.90
2022-07-27T21:22:21.764Z,99.90
2022-07-27T21:24:49.939Z,99.90
2022-07-27T21:27:18.708Z,99.90
2022-07-27T21:29:49.654Z,99.90
2022-07-27T21:32:18.023Z,99.90
2022-07-27T21:34:47.065Z,99.70
2022-07-27T21:37:14.867Z,99.90
2022-07-27T21:39:42.722Z,99.90
2022-07-27T21:42:10.424Z,99.90
2022-07-27T21:44:38.597Z,99.90
2022-07-27T21:47:13.124Z,99.90
2022-07-27T21:49:42.475Z,99.90
2022-07-27T21:52:11.583Z,99.90
2022-07-27T21:54:39.396Z,99.90
2022-07-27T21:57:07.121Z,99.90
2022-07-27T21:59:35.954Z,99.90
2022-07-27T22:02:03.649Z,99.90
2022-07-27T22:04:31.433Z,99.90
2022-07-27T22:07:00.185Z,99.90
2022-07-27T22:09:28.242Z,99.90
2022-07-27T22:11:56.243Z,99.90
2022-07-27T22:14:24.516Z,99.90
2022-07-27T22:16:53.396Z,99.90
2022-07-27T22:19:21.111Z,99.90
2022-07-27T22:21:48.870Z,99.90
2022-07-27T22:24:17.648Z,99.90
2022-07-27T22:26:45.543Z,99.90
2022-07-27T22:29:13.493Z,99.90
2022-07-27T22:31:42.201Z,99.90
2022-07-27T22:34:10.161Z,99.90
2022-07-27T22:36:38.928Z,99.90
2022-07-27T22:39:06.923Z,99.90
2022-07-27T22:41:34.760Z,99.90
2022-07-27T22:44:03.566Z,99.90
2022-07-27T22:46:31.426Z,99.90
2022-07-27T22:48:59.576Z,99.90
2022-07-27T22:51:50.405Z,99.90
2022-07-27T22:54:15.418Z,99.90
2022-07-27T22:56:43.579Z,99.90
2022-07-27T22:59:12.081Z,99.90
2022-07-27T23:01:46.217Z,99.90
2022-07-27T23:04:16.493Z,99.90
2022-07-27T23:06:44.814Z,99.90
2022-07-27T23:09:12.685Z,99.90
2022-07-27T23:11:40.725Z,99.90
2022-07-27T23:14:08.508Z,99.90
2022-07-27T23:16:39.378Z,99.90
2022-07-27T23:19:08.023Z,99.90
2022-07-27T23:21:35.791Z,99.90
2022-07-27T23:24:05.192Z,99.90
2022-07-27T23:26:34.658Z,99.90
2022-07-27T23:29:02.498Z,99.90
2022-07-27T23:31:31.208Z,99.90
2022-07-27T23:33:59.075Z,99.90
2022-07-27T23:36:26.999Z,99.90
2022-07-27T23:38:55.739Z,99.90
2022-07-27T23:41:24.354Z,99.90
2022-07-27T23:43:52.191Z,99.90
2022-07-27T23:46:20.149Z,99.90
2022-07-27T23:48:48.234Z,99.90
2022-07-27T23:51:20.607Z,99.90
2022-07-27T23:53:48.345Z,99.90
2022-07-27T23:56:17.420Z,99.90
2022-07-27T23:58:46.547Z,99.90
